Time;durP1;ratioP1;P1;durP2;ratioP2;P2;SDS_P1;SDS_P2;PMS_P1;PMS_P2;Temp;Humidity;BMP_temperature;BMP_pressure;BME280_temperature;BME280_humidity;BME280_pressure;Samples;Min_cycle;Max_cycle;Signal;HPM_P1;HPM_P2
2022/03/06 00:00:26;;;;;;;8.63;4.72;;;-0.70;99.90;;;;;;5088082;28;20412;-52
2022/03/06 00:02:52;;;;;;;5.65;4.05;;;-0.70;99.90;;;;;;5072257;28;20032;-55
2022/03/06 00:05:18;;;;;;;6.32;4.15;;;-0.70;99.90;;;;;;5072564;28;20491;-53
2022/03/06 00:07:43;;;;;;;5.78;4.22;;;-0.70;99.90;;;;;;5072994;28;20027;-50
2022/03/06 00:10:09;;;;;;;5.82;3.30;;;-0.70;99.90;;;;;;5073044;28;20027;-50
2022/03/06 00:12:35;;;;;;;7.25;3.72;;;-0.70;99.90;;;;;;5072706;28;20055;-52
2022/03/06 00:15:00;;;;;;;5.18;3.53;;;-0.70;99.90;;;;;;5080827;28;20503;-52
2022/03/06 00:17:26;;;;;;;4.53;3.38;;;-0.70;99.90;;;;;;5054269;28;20403;-54
2022/03/06 00:19:51;;;;;;;5.82;4.07;;;-0.70;99.90;;;;;;5082405;28;20025;-53
2022/03/06 00:22:18;;;;;;;6.13;3.55;;;-0.80;99.90;;;;;;5072218;28;20116;-55
2022/03/06 00:24:43;;;;;;;4.50;3.13;;;-0.70;99.90;;;;;;5072321;28;20492;-52
2022/03/06 00:27:09;;;;;;;6.20;3.50;;;-0.70;99.90;;;;;;5084012;28;20028;-50
2022/03/06 00:29:35;;;;;;;7.55;3.70;;;-0.70;99.90;;;;;;5090715;28;20054;-53
2022/03/06 00:32:01;;;;;;;5.35;3.00;;;-0.70;99.90;;;;;;5089097;28;20035;-53
2022/03/06 00:34:26;;;;;;;4.63;2.70;;;-0.70;99.90;;;;;;5090352;28;20020;-54
2022/03/06 00:36:52;;;;;;;4.18;3.00;;;-0.70;99.90;;;;;;5090123;28;20035;-54
2022/03/06 00:39:18;;;;;;;4.18;2.35;;;-0.70;99.90;;;;;;5090805;28;20028;-50
2022/03/06 00:41:44;;;;;;;2.80;2.55;;;-0.70;99.90;;;;;;5090366;28;20111;-53
2022/03/06 00:44:09;;;;;;;4.38;2.58;;;-0.70;99.90;;;;;;5071035;28;20584;-53
2022/03/06 00:46:35;;;;;;;3.28;2.50;;;-0.70;99.90;;;;;;5070637;28;20029;-55
2022/03/06 00:49:01;;;;;;;4.22;2.65;;;-0.70;99.90;;;;;;5071634;28;20036;-49
2022/03/06 00:51:27;;;;;;;2.65;2.20;;;-0.70;99.90;;;;;;5071023;28;20111;-53
2022/03/06 00:53:53;;;;;;;3.75;2.60;;;-0.70;99.90;;;;;;5070870;28;20133;-52
2022/03/06 00:56:18;;;;;;;3.33;2.33;;;-0.70;99.90;;;;;;5070277;28;20033;-53
2022/03/06 00:58:44;;;;;;;3.63;2.67;;;-0.70;99.90;;;;;;5070254;28;20067;-50
2022/03/06 01:01:09;;;;;;;4.70;2.55;;;-0.70;99.90;;;;;;5071480;28;20036;-53
2022/03/06 01:03:35;;;;;;;4.57;2.70;;;-0.70;99.90;;;;;;5087531;28;20035;-54
2022/03/06 01:06:01;;;;;;;4.38;2.72;;;-0.70;99.90;;;;;;5090932;28;20770;-50
2022/03/06 01:08:26;;;;;;;2.92;2.50;;;-0.70;99.90;;;;;;5086968;28;20036;-54
2022/03/06 01:10:53;;;;;;;3.55;3.00;;;-0.70;99.90;;;;;;5072724;28;20021;-56
2022/03/06 01:13:20;;;;;;;3.33;2.55;;;-0.70;99.90;;;;;;5062265;28;20029;-55
2022/03/06 01:15:46;;;;;;;5.00;2.90;;;-0.70;99.90;;;;;;5062699;28;20043;-53
2022/03/06 01:18:12;;;;;;;3.95;2.15;;;-0.70;99.90;;;;;;5069388;28;20029;-56
2022/03/06 01:20:39;;;;;;;3.95;2.97;;;-0.70;99.90;;;;;;5068550;28;20040;-55
2022/03/06 01:23:06;;;;;;;4.00;2.55;;;-0.70;99.90;;;;;;5069371;28;20028;-53
2022/03/06 01:25:32;;;;;;;6.53;3.05;;;-0.70;99.90;;;;;;5063571;28;20033;-54
2022/03/06 01:27:58;;;;;;;4.90;3.28;;;-0.70;99.90;;;;;;5051643;28;20086;-53
2022/03/06 01:30:25;;;;;;;3.50;2.45;;;-0.70;99.90;;;;;;5069093;28;20028;-52
2022/03/06 01:32:51;;;;;;;3.70;2.85;;;-0.70;99.90;;;;;;5067993;28;20544;-55
2022/03/06 01:35:18;;;;;;;5.10;2.65;;;-0.70;99.90;;;;;;5063086;28;20463;-53
2022/03/06 01:37:44;;;;;;;3.83;2.88;;;-0.70;99.90;;;;;;5049723;28;20025;-52
2022/03/06 01:40:12;;;;;;;4.78;2.08;;;-0.70;99.90;;;;;;5049176;28;20025;-55
2022/03/06 01:42:43;;;;;;;2.92;2.03;;;-0.70;99.90;;;;;;5051042;28;20409;-52
2022/03/06 01:45:10;;;;;;;3.13;2.70;;;-0.80;99.90;;;;;;5068116;28;20071;-54
2022/03/06 01:47:45;;;;;;;3.00;2.50;;;-0.70;99.90;;;;;;5067627;28;20032;-53
2022/03/06 01:50:22;;;;;;;4.60;2.40;;;-0.70;99.90;;;;;;5068733;28;20064;-55
2022/03/06 01:52:49;;;;;;;4.68;2.47;;;-0.70;99.90;;;;;;5081145;28;20020;-53
2022/03/06 01:55:20;;;;;;;3.97;2.78;;;-0.70;99.90;;;;;;5076483;28;20032;-51
2022/03/06 01:57:47;;;;;;;5.82;2.45;;;-0.70;99.90;;;;;;5076028;28;20389;-52
2022/03/06 02:00:17;;;;;;;3.88;2.88;;;-0.70;99.90;;;;;;5086815;28;20046;-53
2022/03/06 02:02:43;;;;;;;6.45;2.92;;;-0.70;99.90;;;;;;5084908;28;20036;-50
2022/03/06 02:05:10;;;;;;;5.18;2.47;;;-0.70;99.90;;;;;;5073831;28;20701;-50
2022/03/06 02:07:36;;;;;;;6.38;2.92;;;-0.70;99.90;;;;;;5068727;28;20051;-51
2022/03/06 02:10:03;;;;;;;3.90;2.60;;;-0.70;99.90;;;;;;5085339;28;20487;-55
2022/03/06 02:12:29;;;;;;;4.70;2.38;;;-0.70;99.90;;;;;;5070463;28;20081;-55
2022/03/06 02:14:57;;;;;;;2.97;2.65;;;-0.70;99.90;;;;;;5074669;28;20564;-54
2022/03/06 02:17:24;;;;;;;3.78;2.53;;;-0.70;99.90;;;;;;5069369;28;20082;-51
2022/03/06 02:19:57;;;;;;;2.53;2.13;;;-0.70;99.90;;;;;;5069594;28;20036;-51
2022/03/06 02:22:31;;;;;;;3.42;2.15;;;-0.70;99.90;;;;;;5087050;28;20025;-52
2022/03/06 02:24:57;;;;;;;2.95;2.60;;;-0.70;99.90;;;;;;5077787;28;20152;-53
2022/03/06 02:27:24;;;;;;;4.75;2.72;;;-0.70;99.90;;;;;;5074136;28;20029;-50
2022/03/06 02:29:50;;;;;;;2.97;2.05;;;-0.70;99.90;;;;;;5068805;28;20503;-54
2022/03/06 02:32:18;;;;;;;5.05;2.50;;;-0.70;99.90;;;;;;5068947;28;20028;-53
2022/03/06 02:34:45;;;;;;;3.70;2.50;;;-0.70;99.90;;;;;;5079016;28;20032;-51
2022/03/06 02:37:12;;;;;;;4.88;2.10;;;-0.70;99.90;;;;;;5088661;28;20088;-51
2022/03/06 02:39:38;;;;;;;2.67;2.22;;;-0.80;99.90;;;;;;5088622;28;20039;-53
2022/03/06 02:42:04;;;;;;;2.83;2.28;;;-0.80;99.90;;;;;;5070727;28;20035;-53
2022/03/06 02:44:30;;;;;;;3.72;2.40;;;-0.80;99.90;;;;;;5079850;28;20040;-50
2022/03/06 02:46:56;;;;;;;3.00;2.20;;;-0.80;99.90;;;;;;5069076;28;20109;-55
2022/03/06 02:49:22;;;;;;;4.72;1.92;;;-0.80;99.90;;;;;;5071458;28;20075;-53
2022/03/06 02:51:48;;;;;;;2.45;2.25;;;-0.70;99.90;;;;;;5077436;28;20039;-51
2022/03/06 02:54:17;;;;;;;4.38;1.88;;;-0.80;99.90;;;;;;5072568;28;20024;-52
2022/03/06 02:56:46;;;;;;;2.15;1.50;;;-0.70;99.90;;;;;;5088515;28;20077;-52
2022/03/06 02:59:12;;;;;;;3.33;2.03;;;-0.70;99.90;;;;;;5088510;28;20101;-54
2022/03/06 03:01:41;;;;;;;3.08;1.63;;;-0.70;99.90;;;;;;5086446;28;20491;-51
2022/03/06 03:04:08;;;;;;;3.85;1.90;;;-0.70;99.90;;;;;;5085105;28;20466;-53
2022/03/06 03:06:33;;;;;;;5.00;2.30;;;-0.70;99.90;;;;;;5068904;28;20028;-50
2022/03/06 03:08:59;;;;;;;2.33;1.90;;;-0.70;99.90;;;;;;5068359;28;20040;-54
2022/03/06 03:11:25;;;;;;;3.33;2.25;;;-0.70;99.90;;;;;;5068887;28;20068;-53
2022/03/06 03:13:51;;;;;;;3.90;1.83;;;-0.70;99.90;;;;;;5069788;28;20052;-56
2022/03/06 03:16:16;;;;;;;2.05;1.80;;;-0.70;99.90;;;;;;5089253;28;20039;-52
2022/03/06 03:18:42;;;;;;;4.20;2.00;;;-0.70;99.90;;;;;;5090958;28;20495;-56
2022/03/06 03:21:07;;;;;;;2.28;1.65;;;-0.60;99.90;;;;;;5091507;28;20523;-52
2022/03/06 03:23:33;;;;;;;2.30;2.00;;;-0.60;99.90;;;;;;5087150;28;20036;-49
2022/03/06 03:25:58;;;;;;;2.38;1.90;;;-0.60;99.90;;;;;;5086386;28;20085;-51
2022/03/06 03:28:24;;;;;;;4.57;2.03;;;-0.60;99.90;;;;;;5073702;28;20048;-51
2022/03/06 03:30:49;;;;;;;2.25;2.05;;;-0.60;99.90;;;;;;5072105;28;20068;-55
2022/03/06 03:33:15;;;;;;;4.07;2.13;;;-0.60;99.90;;;;;;5072933;28;20025;-54
2022/03/06 03:35:40;;;;;;;3.22;2.00;;;-0.60;99.90;;;;;;5087403;28;20016;-52
2022/03/06 03:38:06;;;;;;;2.47;1.75;;;-0.60;99.90;;;;;;5078212;28;20500;-52
2022/03/06 03:40:31;;;;;;;4.43;2.17;;;-0.60;99.90;;;;;;5073596;28;20104;-55
2022/03/06 03:42:57;;;;;;;4.30;1.92;;;-0.50;99.90;;;;;;5074434;28;20040;-51
2022/03/06 03:45:23;;;;;;;2.85;2.08;;;-0.50;99.90;;;;;;5071758;28;20110;-51
2022/03/06 03:47:48;;;;;;;4.40;2.20;;;-0.50;99.90;;;;;;5071842;28;20043;-53
2022/03/06 03:50:14;;;;;;;5.85;1.95;;;-0.50;99.90;;;;;;5082151;28;20044;-52
2022/03/06 03:52:39;;;;;;;2.13;1.67;;;-0.50;99.90;;;;;;5091069;28;20039;-51
2022/03/06 03:55:06;;;;;;;3.47;1.73;;;-0.50;99.90;;;;;;5087167;28;20031;-50
2022/03/06 03:57:31;;;;;;;2.45;2.08;;;-0.50;99.90;;;;;;5071699;28;20024;-53
2022/03/06 03:59:57;;;;;;;2.35;1.80;;;-0.50;99.90;;;;;;5071528;28;20094;-51
2022/03/06 04:02:23;;;;;;;3.33;2.15;;;-0.50;99.90;;;;;;5071083;28;20094;-52
2022/03/06 04:04:49;;;;;;;2.20;2.00;;;-0.50;99.90;;;;;;5072771;28;20025;-53
2022/03/06 04:07:16;;;;;;;1.98;1.77;;;-0.50;99.90;;;;;;5091522;28;20074;-54
2022/03/06 04:09:41;;;;;;;2.55;1.90;;;-0.50;99.90;;;;;;5090994;28;20032;-55
2022/03/06 04:12:08;;;;;;;5.55;2.42;;;-0.50;99.90;;;;;;5091105;28;20035;-52
2022/03/06 04:14:34;;;;;;;3.92;1.92;;;-0.50;99.90;;;;;;5091317;28;20514;-52
2022/03/06 04:16:59;;;;;;;3.40;1.73;;;-0.50;99.90;;;;;;5071745;28;20024;-53
2022/03/06 04:19:25;;;;;;;3.35;2.08;;;-0.50;99.90;;;;;;5072563;28;20040;-52
2022/03/06 04:21:51;;;;;;;5.50;2.28;;;-0.50;99.90;;;;;;5088525;28;20035;-55
2022/03/06 04:24:16;;;;;;;3.17;2.53;;;-0.50;99.90;;;;;;5089747;28;20032;-51
2022/03/06 04:26:42;;;;;;;4.00;2.20;;;-0.50;99.90;;;;;;5074663;28;20068;-52
2022/03/06 04:29:08;;;;;;;4.78;2.70;;;-0.50;99.90;;;;;;5070010;28;20040;-52
2022/03/06 04:31:33;;;;;;;2.65;2.10;;;-0.50;99.90;;;;;;5070967;28;20035;-54
2022/03/06 04:33:59;;;;;;;2.42;2.17;;;-0.50;99.90;;;;;;5070304;28;20064;-52
2022/03/06 04:36:25;;;;;;;4.15;2.08;;;-0.50;99.90;;;;;;5084683;28;20039;-51
2022/03/06 04:38:51;;;;;;;2.75;2.55;;;-0.50;99.90;;;;;;5090780;28;20040;-51
2022/03/06 04:41:17;;;;;;;3.15;2.03;;;-0.50;99.90;;;;;;5086997;28;20024;-52
2022/03/06 04:43:43;;;;;;;7.07;2.38;;;-0.50;99.90;;;;;;5070619;28;20035;-52
2022/03/06 04:46:09;;;;;;;4.45;2.63;;;-0.50;99.90;;;;;;5071814;28;20043;-53
2022/03/06 04:48:34;;;;;;;2.75;2.00;;;-0.50;99.90;;;;;;5070385;28;20400;-54
2022/03/06 04:51:00;;;;;;;3.50;2.58;;;-0.50;99.90;;;;;;5070649;28;20119;-55
2022/03/06 04:53:25;;;;;;;4.15;2.55;;;-0.40;99.90;;;;;;5052481;28;20085;-53
2022/03/06 04:55:51;;;;;;;2.45;2.22;;;-0.50;99.90;;;;;;5063040;28;20028;-50
2022/03/06 04:58:16;;;;;;;2.30;2.10;;;-0.40;99.90;;;;;;5090252;28;20020;-53
2022/03/06 05:00:42;;;;;;;2.90;2.63;;;-0.40;99.90;;;;;;5083045;28;20032;-52
2022/03/06 05:03:08;;;;;;;4.43;2.20;;;-0.40;99.90;;;;;;5069965;28;20115;-53
2022/03/06 05:05:33;;;;;;;3.00;2.35;;;-0.40;99.90;;;;;;5071216;28;20496;-55
2022/03/06 05:07:59;;;;;;;4.68;2.45;;;-0.40;99.90;;;;;;5070452;28;20492;-51
2022/03/06 05:10:25;;;;;;;2.78;2.42;;;-0.40;99.90;;;;;;5070088;28;20483;-53
2022/03/06 05:12:50;;;;;;;3.75;2.50;;;-0.40;99.90;;;;;;5087819;28;20040;-52
2022/03/06 05:15:16;;;;;;;3.28;2.80;;;-0.40;99.90;;;;;;5084920;28;20028;-52
2022/03/06 05:17:42;;;;;;;4.15;2.70;;;-0.40;99.90;;;;;;5070190;28;20028;-52
2022/03/06 05:20:14;;;;;;;3.35;2.42;;;-0.40;99.90;;;;;;5080513;28;20028;-53
2022/03/06 05:22:40;;;;;;;2.60;2.40;;;-0.40;99.90;;;;;;5083033;28;20344;-51
2022/03/06 05:25:07;;;;;;;3.72;2.60;;;-0.40;99.90;;;;;;5078166;28;20077;-52
2022/03/06 05:27:33;;;;;;;4.38;2.75;;;-0.40;99.90;;;;;;5070143;28;20086;-55
2022/03/06 05:29:58;;;;;;;2.97;2.25;;;-0.40;99.90;;;;;;5086936;28;20032;-52
2022/03/06 05:32:24;;;;;;;2.55;2.28;;;-0.40;99.90;;;;;;5069866;28;20067;-52
2022/03/06 05:34:49;;;;;;;5.13;2.63;;;-0.40;99.90;;;;;;5082774;28;20438;-53
2022/03/06 05:37:15;;;;;;;2.90;2.08;;;-0.40;99.90;;;;;;5072755;28;20079;-55
2022/03/06 05:39:41;;;;;;;4.50;2.45;;;-0.40;99.90;;;;;;5070776;28;20040;-56
2022/03/06 05:42:06;;;;;;;3.33;2.28;;;-0.40;99.90;;;;;;5068588;28;20033;-50
2022/03/06 05:44:32;;;;;;;3.00;2.70;;;-0.30;99.90;;;;;;5069764;28;20360;-54
2022/03/06 05:46:58;;;;;;;2.65;2.15;;;-0.30;99.90;;;;;;5083892;28;20388;-55
2022/03/06 05:49:23;;;;;;;3.40;2.47;;;-0.30;99.90;;;;;;5088035;28;20447;-54
2022/03/06 05:51:49;;;;;;;3.15;2.63;;;-0.30;99.90;;;;;;5089351;28;20464;-52
2022/03/06 05:54:14;;;;;;;3.33;2.05;;;-0.30;99.90;;;;;;5089400;28;20016;-50
2022/03/06 05:56:40;;;;;;;3.42;2.25;;;-0.20;99.90;;;;;;5081372;28;20028;-51
2022/03/06 05:59:06;;;;;;;3.88;2.38;;;-0.20;99.90;;;;;;5069632;28;20107;-55
2022/03/06 06:01:32;;;;;;;4.82;2.55;;;-0.20;99.90;;;;;;5070696;28;20112;-53
2022/03/06 06:03:59;;;;;;;5.40;2.28;;;-0.20;99.90;;;;;;5088798;28;20044;-55
2022/03/06 06:06:25;;;;;;;2.67;2.47;;;-0.20;99.90;;;;;;5080140;28;20570;-55
2022/03/06 06:08:51;;;;;;;3.67;3.08;;;-0.20;99.90;;;;;;5069319;28;20090;-51
2022/03/06 06:11:18;;;;;;;4.50;2.50;;;-0.20;99.90;;;;;;5069526;28;20423;-52
2022/03/06 06:13:44;;;;;;;4.28;2.35;;;-0.20;99.90;;;;;;5068953;28;20055;-55
2022/03/06 06:16:10;;;;;;;3.47;2.63;;;-0.20;99.90;;;;;;5075804;28;20115;-53
2022/03/06 06:18:35;;;;;;;3.08;2.63;;;-0.20;99.90;;;;;;5088689;28;20106;-53
2022/03/06 06:21:01;;;;;;;5.93;2.58;;;-0.10;99.90;;;;;;5087726;28;20032;-53
2022/03/06 06:23:27;;;;;;;4.25;2.22;;;-0.10;99.90;;;;;;5088942;28;20030;-52
2022/03/06 06:25:52;;;;;;;4.40;2.58;;;-0.10;99.90;;;;;;5061613;28;20055;-54
2022/03/06 06:28:18;;;;;;;2.95;2.20;;;-0.10;99.90;;;;;;5089268;28;20060;-52
2022/03/06 06:30:43;;;;;;;2.63;2.42;;;-0.10;99.90;;;;;;5087368;28;20039;-52
2022/03/06 06:33:09;;;;;;;4.82;2.40;;;-0.10;99.90;;;;;;5088629;28;20099;-53
2022/03/06 06:35:34;;;;;;;4.30;2.45;;;0.00;99.90;;;;;;5073818;28;20752;-51
2022/03/06 06:38:01;;;;;;;3.35;2.28;;;0.00;99.90;;;;;;5089441;28;20032;-52
2022/03/06 06:40:26;;;;;;;3.78;2.30;;;0.00;99.90;;;;;;5088550;28;20111;-53
2022/03/06 06:42:53;;;;;;;2.58;2.17;;;0.00;99.90;;;;;;5088921;28;20115;-53
2022/03/06 06:45:18;;;;;;;3.20;2.38;;;0.00;99.90;;;;;;5088899;28;20383;-52
2022/03/06 06:47:44;;;;;;;3.22;2.25;;;0.00;99.90;;;;;;5070218;28;20107;-53
2022/03/06 06:50:10;;;;;;;2.67;2.05;;;0.00;99.90;;;;;;5078101;28;20043;-52
2022/03/06 06:52:36;;;;;;;2.97;2.28;;;0.00;99.90;;;;;;5074360;28;20021;-53
2022/03/06 06:55:02;;;;;;;2.10;1.88;;;0.10;99.90;;;;;;5072808;28;20541;-52
2022/03/06 06:57:29;;;;;;;5.13;2.42;;;0.10;99.90;;;;;;5088673;28;20024;-53
2022/03/06 06:59:55;;;;;;;2.83;2.08;;;0.10;99.90;;;;;;5090770;28;20115;-55
2022/03/06 07:02:20;;;;;;;2.08;1.88;;;0.20;99.90;;;;;;5071941;28;20075;-55
2022/03/06 07:04:46;;;;;;;3.33;2.17;;;0.20;99.90;;;;;;5072705;28;20041;-51
2022/03/06 07:07:11;;;;;;;2.67;2.28;;;0.20;99.90;;;;;;5072853;28;20036;-52
2022/03/06 07:09:37;;;;;;;2.80;2.03;;;0.20;99.90;;;;;;5073537;28;20089;-53
2022/03/06 07:12:03;;;;;;;2.90;1.98;;;0.30;99.90;;;;;;5086891;28;20115;-54
2022/03/06 07:14:29;;;;;;;3.17;1.83;;;0.30;99.90;;;;;;5078185;28;20107;-53
2022/03/06 07:16:55;;;;;;;1.60;1.50;;;0.40;99.90;;;;;;5090957;28;20052;-51
2022/03/06 07:19:20;;;;;;;1.90;1.38;;;0.40;99.90;;;;;;5087635;28;20507;-49
2022/03/06 07:21:46;;;;;;;1.67;1.58;;;0.50;99.90;;;;;;5073532;28;20681;-52
2022/03/06 07:24:11;;;;;;;1.65;1.55;;;0.50;99.90;;;;;;5073139;28;20043;-55
2022/03/06 07:26:37;;;;;;;2.00;1.60;;;0.60;99.90;;;;;;5087413;28;20032;-55
2022/03/06 07:29:03;;;;;;;2.40;1.60;;;0.60;99.90;;;;;;5074583;28;20102;-55
2022/03/06 07:31:29;;;;;;;3.72;2.00;;;0.70;99.90;;;;;;5082388;28;20576;-52
2022/03/06 07:33:55;;;;;;;2.72;1.60;;;0.70;99.90;;;;;;5072083;28;20104;-53
2022/03/06 07:36:20;;;;;;;2.53;1.88;;;0.70;99.90;;;;;;5072449;28;20035;-52
2022/03/06 07:38:46;;;;;;;2.97;1.52;;;0.80;99.90;;;;;;5072062;28;20020;-52
2022/03/06 07:41:12;;;;;;;1.52;1.42;;;0.80;99.90;;;;;;5072502;28;20028;-53
2022/03/06 07:43:38;;;;;;;2.65;2.00;;;0.90;99.90;;;;;;5077153;28;20071;-52
2022/03/06 07:46:04;;;;;;;2.35;1.65;;;1.00;99.90;;;;;;5091873;28;20507;-53
2022/03/06 07:48:30;;;;;;;2.38;1.13;;;1.10;99.90;;;;;;5088390;28;20028;-52
2022/03/06 07:50:56;;;;;;;1.92;1.38;;;1.20;99.90;;;;;;5073096;28;20110;-49
2022/03/06 07:53:21;;;;;;;2.97;0.88;;;1.30;99.90;;;;;;5075180;28;20031;-51
2022/03/06 07:55:47;;;;;;;3.90;1.10;;;1.30;99.90;;;;;;5091683;28;20035;-53
2022/03/06 07:58:12;;;;;;;2.95;1.40;;;1.30;99.90;;;;;;5090410;28;20039;-54
2022/03/06 08:00:38;;;;;;;1.63;1.52;;;1.30;99.90;;;;;;5077424;28;20458;-53
2022/03/06 08:03:03;;;;;;;3.35;1.48;;;1.40;99.90;;;;;;5070921;28;20025;-54
2022/03/06 08:05:29;;;;;;;1.90;1.23;;;1.40;99.90;;;;;;5089840;28;20484;-51
2022/03/06 08:07:55;;;;;;;1.40;1.15;;;1.50;99.90;;;;;;5091558;28;20052;-55
2022/03/06 08:10:20;;;;;;;2.30;1.30;;;1.50;99.90;;;;;;5089983;28;20036;-55
2022/03/06 08:12:49;;;;;;;3.10;1.55;;;1.60;99.90;;;;;;5071316;28;20017;-53
2022/03/06 08:15:15;;;;;;;3.30;2.20;;;1.70;99.90;;;;;;5081901;28;20032;-54
2022/03/06 08:17:41;;;;;;;5.38;2.50;;;1.80;99.90;;;;;;5091308;28;20431;-54
2022/03/06 08:20:07;;;;;;;2.53;1.83;;;1.90;99.90;;;;;;5089926;28;20123;-51
2022/03/06 08:22:33;;;;;;;2.10;1.90;;;2.00;99.90;;;;;;5071401;28;20028;-52
2022/03/06 08:24:59;;;;;;;2.88;2.38;;;2.20;99.90;;;;;;5074927;28;20337;-53
2022/03/06 08:27:25;;;;;;;3.10;1.92;;;2.30;99.90;;;;;;5071928;28;20489;-54
2022/03/06 08:29:51;;;;;;;2.90;2.15;;;2.50;99.90;;;;;;5071057;28;20028;-53
2022/03/06 08:32:16;;;;;;;6.97;2.50;;;2.60;99.90;;;;;;5086848;28;20020;-54
2022/03/06 08:34:42;;;;;;;3.03;2.13;;;2.70;99.90;;;;;;5075434;28;20669;-53
2022/03/06 08:37:08;;;;;;;2.78;2.20;;;2.70;99.90;;;;;;5072163;28;20035;-52
2022/03/06 08:39:34;;;;;;;3.17;2.05;;;2.90;99.90;;;;;;5073288;28;20086;-50
2022/03/06 08:42:00;;;;;;;2.38;1.60;;;3.00;99.90;;;;;;5083448;28;20036;-51
2022/03/06 08:44:26;;;;;;;2.58;2.25;;;3.00;99.90;;;;;;5063221;28;20036;-53
2022/03/06 08:46:51;;;;;;;2.90;1.92;;;3.00;99.90;;;;;;5071644;28;20036;-50
2022/03/06 08:49:17;;;;;;;1.98;1.88;;;3.00;99.90;;;;;;5070649;28;20677;-51
2022/03/06 08:51:43;;;;;;;2.15;1.98;;;3.10;99.90;;;;;;5070686;28;20023;-50
2022/03/06 08:54:09;;;;;;;2.80;2.50;;;3.10;99.90;;;;;;5070198;28;20028;-56
2022/03/06 08:56:34;;;;;;;3.95;2.13;;;3.10;99.90;;;;;;5070352;28;20032;-55
2022/03/06 08:59:00;;;;;;;3.63;2.47;;;3.30;99.90;;;;;;5070380;28;20039;-52
2022/03/06 09:01:26;;;;;;;2.53;2.08;;;3.40;99.90;;;;;;5070304;28;20032;-54
2022/03/06 09:03:51;;;;;;;2.47;2.28;;;3.50;99.90;;;;;;5069964;28;20420;-52
2022/03/06 09:06:17;;;;;;;2.25;2.05;;;3.40;99.90;;;;;;5070150;28;20029;-55
2022/03/06 09:08:43;;;;;;;3.00;1.90;;;3.50;99.90;;;;;;5070159;28;20111;-54
2022/03/06 09:11:09;;;;;;;3.92;1.60;;;3.40;99.40;;;;;;5070311;28;20047;-50
2022/03/06 09:13:35;;;;;;;3.13;1.95;;;3.50;99.90;;;;;;5069622;28;20024;-53
2022/03/06 09:16:02;;;;;;;3.80;1.65;;;3.60;99.90;;;;;;5052077;28;20393;-52
2022/03/06 09:18:28;;;;;;;3.63;2.05;;;3.60;99.90;;;;;;5070269;28;20024;-51
2022/03/06 09:20:53;;;;;;;2.78;1.88;;;3.60;99.70;;;;;;5086045;28;20035;-51
2022/03/06 09:23:19;;;;;;;2.70;2.00;;;3.60;99.50;;;;;;5089864;28;20124;-50
2022/03/06 09:25:44;;;;;;;1.90;1.60;;;3.70;99.90;;;;;;5090408;28;20380;-56
2022/03/06 09:28:10;;;;;;;2.60;1.60;;;4.00;99.50;;;;;;5090138;28;20031;-53
2022/03/06 09:30:36;;;;;;;2.15;1.70;;;4.00;96.60;;;;;;5089876;28;20099;-53
2022/03/06 09:33:02;;;;;;;3.22;1.77;;;3.80;97.60;;;;;;5087321;28;20036;-53
2022/03/06 09:35:27;;;;;;;5.05;2.10;;;3.60;97.50;;;;;;5069420;28;20032;-56
2022/03/06 09:37:54;;;;;;;4.85;1.80;;;3.60;98.70;;;;;;5070595;28;20052;-52
2022/03/06 09:40:19;;;;;;;3.00;1.85;;;3.40;98.70;;;;;;5069595;28;20165;-53
2022/03/06 09:42:45;;;;;;;2.65;2.00;;;3.40;99.20;;;;;;5069763;28;20032;-53
2022/03/06 09:45:12;;;;;;;1.77;1.67;;;3.60;99.60;;;;;;5071145;28;20116;-53
2022/03/06 09:47:40;;;;;;;3.47;2.30;;;3.90;99.90;;;;;;5069902;28;20032;-52
2022/03/06 09:50:07;;;;;;;2.17;1.67;;;4.20;99.90;;;;;;5089892;28;20044;-55
2022/03/06 09:52:33;;;;;;;2.13;1.60;;;4.10;97.70;;;;;;5088399;28;20020;-51
2022/03/06 09:54:59;;;;;;;6.60;1.98;;;4.00;97.80;;;;;;5089605;28;20028;-52
2022/03/06 09:57:25;;;;;;;3.33;2.03;;;3.90;98.10;;;;;;5087772;28;20085;-51
2022/03/06 09:59:50;;;;;;;2.80;1.95;;;4.00;99.90;;;;;;5089736;28;20077;-52
2022/03/06 10:02:16;;;;;;;4.78;2.10;;;4.00;97.50;;;;;;5076206;28;20496;-53
2022/03/06 10:04:42;;;;;;;2.25;2.05;;;3.90;97.40;;;;;;5070689;28;20059;-56
2022/03/06 10:07:09;;;;;;;2.08;1.75;;;4.10;98.40;;;;;;5069522;28;20487;-53
2022/03/06 10:09:42;;;;;;;4.18;2.53;;;4.30;98.50;;;;;;5070046;28;20024;-54
2022/03/06 10:12:27;;;;;;;4.05;2.00;;;4.40;96.60;;;;;;5080889;28;20107;-54
2022/03/06 10:14:54;;;;;;;2.47;2.20;;;4.40;97.00;;;;;;5089205;28;20036;-53
2022/03/06 10:17:25;;;;;;;3.17;1.85;;;4.50;97.10;;;;;;5087505;28;20055;-55
2022/03/06 10:19:58;;;;;;;5.05;1.98;;;4.40;98.70;;;;;;5089205;28;20039;-56
2022/03/06 10:22:34;;;;;;;2.70;2.28;;;4.50;97.80;;;;;;5074269;28;20037;-53
2022/03/06 10:25:09;;;;;;;2.40;1.75;;;4.60;97.20;;;;;;5069249;28;20028;-56
2022/03/06 10:28:02;;;;;;;3.05;2.15;;;4.80;96.60;;;;;;5086808;28;20040;-57
2022/03/06 10:30:34;;;;;;;4.30;2.08;;;4.70;97.00;;;;;;5084384;28;20046;-54
2022/03/06 10:33:17;;;;;;;3.72;2.30;;;4.60;97.30;;;;;;5069103;28;20071;-55
2022/03/06 10:35:45;;;;;;;4.03;2.00;;;4.60;97.60;;;;;;5070140;28;20028;-53
2022/03/06 10:38:17;;;;;;;2.13;1.90;;;4.40;97.10;;;;;;5069318;28;20104;-54
2022/03/06 10:40:42;;;;;;;4.38;2.22;;;4.30;97.20;;;;;;5073258;28;20040;-52
2022/03/06 10:43:26;;;;;;;4.70;2.03;;;4.30;98.10;;;;;;5089223;28;20015;-54
2022/03/06 10:46:06;;;;;;;2.05;1.85;;;4.40;97.90;;;;;;5087484;28;20110;-56
2022/03/06 10:48:32;;;;;;;2.92;2.63;;;4.20;97.50;;;;;;5089260;28;20150;-56
2022/03/06 10:51:03;;;;;;;5.07;2.00;;;4.10;98.40;;;;;;5085869;28;20567;-55
2022/03/06 10:53:29;;;;;;;2.55;2.30;;;3.90;98.00;;;;;;5068612;28;20102;-54
2022/03/06 10:55:55;;;;;;;3.15;2.35;;;3.90;98.50;;;;;;5069074;28;20044;-52
2022/03/06 10:58:21;;;;;;;5.15;2.40;;;4.10;99.90;;;;;;5075729;28;20116;-54
2022/03/06 11:00:48;;;;;;;2.85;2.63;;;4.40;99.90;;;;;;5081839;28;20439;-53
2022/03/06 11:03:14;;;;;;;2.78;2.50;;;4.60;99.20;;;;;;5079797;28;20024;-56
2022/03/06 11:05:45;;;;;;;2.55;2.35;;;4.80;97.80;;;;;;5068963;28;20024;-54
2022/03/06 11:08:15;;;;;;;5.25;2.90;;;4.90;97.60;;;;;;5069203;28;20029;-55
2022/03/06 11:10:42;;;;;;;4.75;2.35;;;4.70;97.40;;;;;;5068953;28;20396;-57
2022/03/06 11:13:11;;;;;;;5.78;2.78;;;4.50;97.90;;;;;;5069426;28;20029;-56
2022/03/06 11:15:36;;;;;;;3.38;2.47;;;4.50;99.20;;;;;;5068615;28;20082;-53
2022/03/06 11:18:02;;;;;;;4.40;2.80;;;4.60;99.90;;;;;;5069352;28;20056;-54
2022/03/06 11:20:30;;;;;;;5.30;3.00;;;4.60;99.20;;;;;;5069007;28;20478;-52
2022/03/06 11:23:16;;;;;;;4.18;2.90;;;4.50;99.00;;;;;;5069093;28;20052;-55
2022/03/06 11:25:49;;;;;;;;;;;4.50;99.30;;;;;;5069141;28;20029;-55
2022/03/06 11:28:35;;;;;;;2.95;2.40;;;4.70;99.90;;;;;;5077154;28;19908;-56
2022/03/06 11:31:01;;;;;;;4.25;2.80;;;4.80;99.40;;;;;;5088728;28;20067;-56
2022/03/06 11:33:27;;;;;;;3.92;2.97;;;4.90;99.70;;;;;;5079273;28;20048;-56
2022/03/06 11:35:52;;;;;;;3.65;3.03;;;4.90;99.10;;;;;;5068339;28;20035;-56
2022/03/06 11:38:20;;;;;;;4.88;2.58;;;4.70;99.20;;;;;;5078543;28;20690;-55
2022/03/06 11:40:53;;;;;;;6.60;3.05;;;4.50;99.90;;;;;;5092325;28;20506;-55
2022/03/06 11:43:29;;;;;;;4.78;3.20;;;4.50;99.90;;;;;;5090123;28;20028;-54
2022/03/06 11:46:08;;;;;;;5.60;3.22;;;4.50;99.90;;;;;;5092182;28;20020;-52
2022/03/06 11:48:34;;;;;;;5.05;2.88;;;4.50;99.90;;;;;;5073687;28;20160;-57
2022/03/06 11:51:21;;;;;;;8.60;4.82;;;4.60;99.90;;;;;;5092045;28;20037;-55
2022/03/06 11:54:14;;;;;;;6.75;3.42;;;4.50;99.90;;;;;;5090212;28;20500;-53
2022/03/06 11:56:43;;;;;;;5.10;3.00;;;4.60;99.90;;;;;;5090727;28;20020;-53
2022/03/06 11:59:19;;;;;;;4.72;2.70;;;4.80;99.90;;;;;;5082250;28;20035;-57
2022/03/06 12:01:52;;;;;;;3.58;2.95;;;4.80;99.90;;;;;;5071698;28;20043;-53
2022/03/06 12:04:19;;;;;;;3.33;2.38;;;4.80;99.60;;;;;;5084270;28;20054;-54
2022/03/06 12:06:46;;;;;;;4.03;2.83;;;4.80;99.90;;;;;;5091641;28;20027;-55
2022/03/06 12:09:17;;;;;;;4.85;3.30;;;4.90;99.90;;;;;;5079593;28;20483;-56
2022/03/06 12:11:44;;;;;;;4.95;3.25;;;4.90;99.90;;;;;;5071513;28;20108;-56
2022/03/06 12:14:35;;;;;;;3.53;2.95;;;4.90;99.90;;;;;;5087166;28;20028;-56
2022/03/06 12:17:04;;;;;;;3.28;2.70;;;4.90;99.90;;;;;;5091243;28;20025;-58
2022/03/06 12:19:50;;;;;;;4.45;2.97;;;4.90;99.90;;;;;;5090978;28;20434;-55
2022/03/06 12:22:21;;;;;;;3.25;2.95;;;4.80;99.90;;;;;;5078837;28;20082;-56
2022/03/06 12:25:06;;;;;;;4.32;3.75;;;4.70;99.90;;;;;;5069860;28;20599;-54
2022/03/06 12:27:32;;;;;;;4.30;3.17;;;4.60;99.90;;;;;;5070736;28;20074;-55
2022/03/06 12:29:59;;;;;;;3.88;2.70;;;4.70;99.90;;;;;;5071250;28;20025;-55
2022/03/06 12:32:24;;;;;;;4.65;3.05;;;4.70;99.90;;;;;;5054785;28;20161;-56
2022/03/06 12:35:02;;;;;;;5.15;3.10;;;4.70;99.90;;;;;;5090737;28;20024;-57
2022/03/06 12:37:33;;;;;;;4.88;3.03;;;4.80;99.90;;;;;;5090695;28;20113;-55
2022/03/06 12:40:00;;;;;;;6.53;3.05;;;4.80;99.90;;;;;;5091317;28;20506;-54
2022/03/06 12:42:28;;;;;;;3.78;3.10;;;4.70;99.90;;;;;;5090162;28;20110;-51
2022/03/06 12:44:56;;;;;;;4.45;2.90;;;4.80;99.90;;;;;;5091040;28;20065;-55
2022/03/06 12:47:22;;;;;;;3.17;2.88;;;4.70;99.90;;;;;;5090436;28;20061;-54
2022/03/06 12:49:52;;;;;;;3.08;2.67;;;4.90;99.90;;;;;;5089916;28;20020;-55
2022/03/06 12:52:20;;;;;;;4.28;3.10;;;4.90;99.90;;;;;;5090091;28;20020;-53